createdAt,value
2018-04-26T00:02:04.295Z,8.40
2018-04-26T00:04:32.477Z,8.50
2018-04-26T00:07:00.426Z,8.60
2018-04-26T00:09:28.006Z,8.60
2018-04-26T00:11:56.277Z,8.70
2018-04-26T00:14:24.254Z,8.70
2018-04-26T00:16:51.911Z,8.70
2018-04-26T00:19:19.720Z,8.80
2018-04-26T00:21:47.349Z,8.70
2018-04-26T00:24:15.418Z,8.80
2018-04-26T00:26:43.182Z,8.80
2018-04-26T00:29:11.148Z,8.80
2018-04-26T00:31:39.221Z,8.80
2018-04-26T00:34:07.195Z,8.70
2018-04-26T00:36:34.640Z,8.70
2018-04-26T00:39:03.232Z,8.70
2018-04-26T00:41:31.204Z,8.70
2018-04-26T00:43:59.266Z,8.70
2018-04-26T00:46:27.440Z,8.70
2018-04-26T00:48:55.316Z,8.70
2018-04-26T00:51:34.666Z,8.70
2018-04-26T00:54:02.204Z,8.60
2018-04-26T00:56:30.558Z,8.60
2018-04-26T00:58:58.219Z,8.60
2018-04-26T01:01:26.734Z,8.60
2018-04-26T01:03:54.593Z,8.60
2018-04-26T01:06:22.571Z,8.60
2018-04-26T01:08:50.533Z,8.60
2018-04-26T01:11:18.092Z,8.60
2018-04-26T01:13:45.885Z,8.60
2018-04-26T01:16:13.690Z,8.60
2018-04-26T01:18:41.285Z,8.70
2018-04-26T01:21:09.177Z,8.70
2018-04-26T01:23:36.721Z,8.70
2018-04-26T01:26:04.694Z,8.70
2018-04-26T01:28:32.549Z,8.70
2018-04-26T01:31:00.416Z,8.60
2018-04-26T01:33:28.289Z,8.60
2018-04-26T01:35:55.953Z,8.60
2018-04-26T01:38:23.843Z,8.60
2018-04-26T01:40:51.373Z,8.60
2018-04-26T01:43:18.942Z,8.60
2018-04-26T01:45:46.911Z,8.60
2018-04-26T01:48:15.099Z,8.50
2018-04-26T01:50:42.638Z,8.60
2018-04-26T01:53:10.545Z,8.60
2018-04-26T01:55:37.998Z,8.60
2018-04-26T01:58:05.729Z,8.60
2018-04-26T02:00:33.699Z,8.60
2018-04-26T02:03:01.666Z,8.60
2018-04-26T02:05:29.636Z,8.60
2018-04-26T02:07:57.615Z,8.60
2018-04-26T02:10:25.708Z,8.60
2018-04-26T02:12:53.247Z,8.60
2018-04-26T02:15:21.339Z,8.60
2018-04-26T02:17:48.870Z,8.60
2018-04-26T02:20:16.848Z,8.60
2018-04-26T02:22:44.813Z,8.50
2018-04-26T02:25:12.788Z,8.50
2018-04-26T02:27:40.776Z,8.50
2018-04-26T02:30:11.996Z,8.50
2018-04-26T02:32:40.096Z,8.50
2018-04-26T02:35:07.650Z,8.50
2018-04-26T02:37:35.245Z,8.50
2018-04-26T02:40:02.750Z,8.50
2018-04-26T02:42:30.410Z,8.50
2018-04-26T02:44:57.976Z,8.40
2018-04-26T02:47:26.059Z,8.30
2018-04-26T02:49:53.619Z,8.30
2018-04-26T02:52:21.172Z,8.30
2018-04-26T02:54:50.068Z,8.40
2018-04-26T02:57:17.981Z,8.40
2018-04-26T02:59:45.625Z,8.40
2018-04-26T03:02:13.195Z,8.40
2018-04-26T03:04:40.806Z,8.50
2018-04-26T03:07:08.775Z,8.40
2018-04-26T03:09:36.754Z,8.50
2018-04-26T03:12:04.723Z,8.50
2018-04-26T03:14:32.787Z,8.50
2018-04-26T03:17:00.763Z,8.50
2018-04-26T03:19:28.324Z,8.50
2018-04-26T03:21:56.238Z,8.60
2018-04-26T03:24:23.666Z,8.60
2018-04-26T03:26:51.143Z,8.50
2018-04-26T03:29:18.660Z,8.50
2018-04-26T03:31:46.645Z,8.50
2018-04-26T03:34:14.290Z,8.60
2018-04-26T03:36:42.069Z,8.60
2018-04-26T03:39:10.435Z,8.60
2018-04-26T03:41:38.324Z,8.60
2018-04-26T03:44:05.861Z,8.60
2018-04-26T03:46:33.835Z,8.60
2018-04-26T03:49:01.856Z,8.60
2018-04-26T03:51:29.362Z,8.50
2018-04-26T03:53:57.339Z,8.50
2018-04-26T03:56:25.300Z,8.50
2018-04-26T03:58:52.863Z,8.50
2018-04-26T04:01:32.254Z,8.50
2018-04-26T04:04:11.944Z,8.50
2018-04-26T04:06:39.917Z,8.50
2018-04-26T04:09:07.883Z,8.50
2018-04-26T04:11:35.772Z,8.50
2018-04-26T04:14:03.208Z,8.50
2018-04-26T04:16:31.176Z,8.50
2018-04-26T04:18:58.995Z,8.50
2018-04-26T04:21:26.512Z,8.50
2018-04-26T04:23:54.474Z,8.50
2018-04-26T04:26:22.440Z,8.50
2018-04-26T04:28:50.002Z,8.40
2018-04-26T04:31:17.560Z,8.50
2018-04-26T04:33:57.459Z,8.50
2018-04-26T04:36:35.211Z,8.40
2018-04-26T04:39:04.315Z,8.50
2018-04-26T04:41:46.201Z,8.50
2018-04-26T04:44:14.273Z,8.60
2018-04-26T04:46:42.155Z,8.70
2018-04-26T04:49:10.112Z,8.80
2018-04-26T04:51:38.186Z,8.80
2018-04-26T04:54:06.078Z,8.80
2018-04-26T04:56:33.615Z,8.70
2018-04-26T04:59:01.699Z,8.80
2018-04-26T05:01:29.142Z,8.80
2018-04-26T05:03:57.033Z,8.70
2018-04-26T05:06:24.566Z,8.60
2018-04-26T05:08:52.459Z,8.60
2018-04-26T05:11:20.123Z,8.60
2018-04-26T05:13:47.929Z,8.70
2018-04-26T05:16:15.343Z,8.70
2018-04-26T05:18:42.788Z,8.80
2018-04-26T05:21:11.567Z,8.90
2018-04-26T05:23:40.560Z,8.90
2018-04-26T05:26:08.538Z,9.00
2018-04-26T05:28:36.498Z,8.90
2018-04-26T05:31:04.264Z,9.00
2018-04-26T05:33:32.345Z,9.10
2018-04-26T05:36:00.222Z,9.10
2018-04-26T05:38:32.064Z,9.10
2018-04-26T05:41:03.765Z,9.10
2018-04-26T05:43:31.204Z,9.00
2018-04-26T05:46:06.102Z,8.90
2018-04-26T05:48:37.365Z,8.90
2018-04-26T05:51:05.281Z,9.00
2018-04-26T05:53:32.652Z,9.00
2018-04-26T05:56:00.163Z,8.90
2018-04-26T05:58:27.570Z,8.90
2018-04-26T06:00:55.012Z,8.90
2018-04-26T06:03:22.450Z,9.00
2018-04-26T06:05:49.971Z,9.00
2018-04-26T06:08:17.838Z,9.00
2018-04-26T06:10:46.020Z,9.00
2018-04-26T06:13:14.084Z,9.00
2018-04-26T06:15:42.065Z,9.00
2018-04-26T06:18:09.619Z,9.00
2018-04-26T06:20:37.482Z,9.00
2018-04-26T06:23:05.041Z,9.00
2018-04-26T06:25:33.526Z,9.00
2018-04-26T06:28:01.391Z,9.00
2018-04-26T06:30:29.277Z,9.10
2018-04-26T06:32:56.817Z,9.10
2018-04-26T06:35:24.482Z,9.20
2018-04-26T06:37:52.458Z,9.20
2018-04-26T06:40:20.841Z,9.20
2018-04-26T06:42:48.884Z,9.10
2018-04-26T06:45:16.361Z,9.10
2018-04-26T06:47:44.407Z,9.10
2018-04-26T06:50:11.999Z,9.10
2018-04-26T06:52:39.960Z,9.20
2018-04-26T06:55:07.528Z,9.20
2018-04-26T06:57:35.489Z,9.20
2018-04-26T07:00:03.368Z,9.20
2018-04-26T07:02:31.038Z,9.20
2018-04-26T07:04:58.467Z,9.20
2018-04-26T07:07:26.240Z,9.20
2018-04-26T07:09:54.064Z,9.10
2018-04-26T07:12:21.573Z,9.10
2018-04-26T07:14:49.566Z,9.10
2018-04-26T07:17:17.097Z,9.20
2018-04-26T07:19:44.907Z,9.20
2018-04-26T07:22:12.314Z,9.30
2018-04-26T07:24:39.896Z,9.40
2018-04-26T07:27:07.336Z,9.40
2018-04-26T07:29:35.150Z,9.50
2018-04-26T07:32:02.599Z,9.60
2018-04-26T07:34:30.301Z,9.60
2018-04-26T07:36:57.887Z,9.70
2018-04-26T07:39:25.798Z,9.90
2018-04-26T07:41:53.420Z,9.90
2018-04-26T07:44:21.243Z,10.00
2018-04-26T07:46:48.736Z,10.10
2018-04-26T07:49:16.651Z,10.10
2018-04-26T07:51:44.264Z,10.20
2018-04-26T07:54:11.734Z,10.20
2018-04-26T07:56:39.166Z,10.30
2018-04-26T07:59:07.102Z,10.30
2018-04-26T08:01:34.925Z,10.30
2018-04-26T08:04:02.348Z,10.30
2018-04-26T08:06:29.970Z,10.30
2018-04-26T08:08:57.418Z,10.40
2018-04-26T08:11:24.873Z,10.40
2018-04-26T08:13:52.419Z,10.40
2018-04-26T08:16:21.018Z,10.40
2018-04-26T08:18:48.543Z,10.40
2018-04-26T08:21:16.920Z,10.50
2018-04-26T08:23:44.373Z,10.60
2018-04-26T08:26:11.809Z,10.70
2018-04-26T08:28:39.413Z,10.80
2018-04-26T08:31:07.070Z,10.90
2018-04-26T08:33:34.852Z,11.00
2018-04-26T08:36:02.650Z,11.00
2018-04-26T08:38:30.298Z,11.20
2018-04-26T08:40:58.150Z,11.30
2018-04-26T08:43:25.900Z,11.40
2018-04-26T08:45:54.083Z,11.50
2018-04-26T08:48:21.860Z,11.60
2018-04-26T08:50:49.288Z,11.70
2018-04-26T08:53:17.178Z,11.90
2018-04-26T08:55:44.691Z,11.90
2018-04-26T08:58:12.105Z,12.10
2018-04-26T09:00:39.738Z,12.10
2018-04-26T09:03:07.183Z,12.30
2018-04-26T09:05:35.078Z,12.60
2018-04-26T09:08:02.842Z,12.70
2018-04-26T09:10:30.479Z,12.90
2018-04-26T09:12:58.565Z,13.20
2018-04-26T09:15:26.387Z,13.30
2018-04-26T09:17:53.984Z,13.40
2018-04-26T09:20:22.463Z,13.60
2018-04-26T09:22:50.288Z,13.80
2018-04-26T09:25:18.016Z,13.80
2018-04-26T09:27:45.464Z,13.90
2018-04-26T09:30:12.955Z,14.20
2018-04-26T09:32:40.596Z,14.40
2018-04-26T09:35:08.169Z,14.70
2018-04-26T09:37:35.813Z,14.70
2018-04-26T09:40:03.459Z,14.60
2018-04-26T09:42:31.326Z,14.20
2018-04-26T09:44:59.187Z,13.60
2018-04-26T09:47:27.164Z,13.40
2018-04-26T09:49:55.049Z,13.20
2018-04-26T09:52:22.805Z,12.80
2018-04-26T09:54:50.200Z,12.70
2018-04-26T09:57:17.912Z,12.50
2018-04-26T09:59:45.970Z,12.40
2018-04-26T10:02:14.573Z,12.40
2018-04-26T10:04:48.684Z,12.50
2018-04-26T10:07:16.754Z,12.60
2018-04-26T10:09:44.243Z,12.90
2018-04-26T10:12:12.079Z,13.00
2018-04-26T10:14:39.926Z,13.10
2018-04-26T10:17:07.329Z,13.10
2018-04-26T10:19:34.974Z,13.40
2018-04-26T10:22:02.846Z,13.50
2018-04-26T10:24:30.557Z,13.60
2018-04-26T10:26:57.938Z,13.80
2018-04-26T10:29:25.516Z,13.90
2018-04-26T10:31:53.691Z,14.10
2018-04-26T10:34:21.458Z,14.30
2018-04-26T10:36:49.229Z,14.40
2018-04-26T10:39:16.603Z,14.50
2018-04-26T10:41:51.913Z,14.60
2018-04-26T10:44:19.821Z,14.30
2018-04-26T10:46:56.386Z,13.60
2018-04-26T10:49:26.906Z,13.00
2018-04-26T10:51:54.266Z,12.60
2018-04-26T10:54:21.698Z,12.40
2018-04-26T10:56:49.561Z,12.00
2018-04-26T10:59:17.652Z,12.00
2018-04-26T11:01:45.008Z,12.10
2018-04-26T11:04:12.409Z,12.30
2018-04-26T11:06:39.906Z,12.30
2018-04-26T11:09:07.847Z,12.20
2018-04-26T11:11:35.371Z,12.20
2018-04-26T11:14:06.398Z,12.20
2018-04-26T11:16:33.833Z,12.10
2018-04-26T11:19:01.777Z,12.20
2018-04-26T11:21:29.133Z,12.30
2018-04-26T11:23:56.511Z,12.60
2018-04-26T11:26:23.891Z,12.80
2018-04-26T11:28:51.324Z,13.00
2018-04-26T11:31:19.621Z,13.20
2018-04-26T11:33:46.966Z,13.20
2018-04-26T11:36:14.398Z,13.00
2018-04-26T11:38:41.952Z,13.00
2018-04-26T11:41:09.736Z,12.90
2018-04-26T11:43:37.262Z,12.90
2018-04-26T11:46:04.735Z,13.00
2018-04-26T11:48:32.219Z,13.20
2018-04-26T11:51:00.186Z,13.60
2018-04-26T11:53:27.989Z,13.90
2018-04-26T11:55:55.367Z,14.00
2018-04-26T11:58:22.888Z,14.40
2018-04-26T12:00:50.425Z,14.50
2018-04-26T12:03:17.897Z,14.90
2018-04-26T12:05:45.227Z,15.30
2018-04-26T12:08:12.599Z,15.20
2018-04-26T12:10:40.472Z,15.50
2018-04-26T12:13:08.461Z,15.70
2018-04-26T12:15:35.810Z,15.90
2018-04-26T12:18:03.238Z,16.30
2018-04-26T12:20:31.110Z,16.00
2018-04-26T12:22:58.468Z,15.80
2018-04-26T12:25:26.369Z,15.10
2018-04-26T12:27:53.900Z,15.00
2018-04-26T12:30:21.653Z,14.50
2018-04-26T12:32:49.610Z,14.30
2018-04-26T12:35:17.102Z,14.20
2018-04-26T12:37:44.851Z,14.20
2018-04-26T12:40:12.601Z,14.20
2018-04-26T12:42:40.079Z,14.10
2018-04-26T12:45:07.941Z,13.90
2018-04-26T12:47:35.720Z,13.70
2018-04-26T12:50:03.676Z,13.60
2018-04-26T12:52:31.452Z,13.60
2018-04-26T12:54:58.815Z,13.60
2018-04-26T12:57:26.458Z,13.70
2018-04-26T12:59:54.332Z,13.60
2018-04-26T13:02:22.292Z,13.70
2018-04-26T13:04:50.352Z,13.60
2018-04-26T13:07:17.717Z,13.50
2018-04-26T13:09:45.063Z,13.30
2018-04-26T13:12:12.449Z,13.00
2018-04-26T13:14:39.888Z,12.80
2018-04-26T13:17:07.771Z,12.70
2018-04-26T13:19:35.377Z,12.60
2018-04-26T13:22:02.877Z,12.40
2018-04-26T13:24:30.845Z,12.20
2018-04-26T13:26:58.253Z,12.30
2018-04-26T13:29:25.685Z,12.60
2018-04-26T13:31:53.322Z,12.90
2018-04-26T13:34:21.184Z,12.90
2018-04-26T13:36:48.939Z,13.00
2018-04-26T13:39:16.410Z,13.00
2018-04-26T13:41:44.312Z,13.30
2018-04-26T13:44:11.869Z,13.80
2018-04-26T13:46:39.297Z,14.20
2018-04-26T13:49:07.469Z,14.40
2018-04-26T13:51:35.848Z,14.20
2018-04-26T13:54:03.729Z,14.10
2018-04-26T13:56:31.595Z,14.00
2018-04-26T13:58:58.991Z,13.90
2018-04-26T14:01:26.423Z,14.00
2018-04-26T14:03:53.868Z,14.10
2018-04-26T14:06:21.736Z,14.40
2018-04-26T14:08:49.180Z,14.90
2018-04-26T14:11:17.150Z,15.60
2018-04-26T14:13:45.323Z,16.10
2018-04-26T14:16:13.189Z,16.10
2018-04-26T14:18:40.961Z,16.20
2018-04-26T14:21:08.823Z,15.60
2018-04-26T14:23:36.691Z,15.30
2018-04-26T14:26:04.658Z,14.80
2018-04-26T14:28:32.128Z,14.70
2018-04-26T14:31:00.218Z,14.70
2018-04-26T14:33:27.972Z,14.60
2018-04-26T14:35:55.516Z,14.40
2018-04-26T14:38:23.590Z,14.30
2018-04-26T14:40:51.861Z,14.20
2018-04-26T14:43:19.636Z,14.10
2018-04-26T14:45:47.494Z,14.20
2018-04-26T14:48:15.373Z,14.30
2018-04-26T14:50:42.921Z,14.60
2018-04-26T14:53:10.788Z,14.90
2018-04-26T14:55:38.260Z,15.20
2018-04-26T14:58:05.820Z,15.70
2018-04-26T15:00:33.778Z,15.90
2018-04-26T15:03:01.644Z,16.20
2018-04-26T15:05:29.127Z,16.30
2018-04-26T15:07:56.490Z,16.10
2018-04-26T15:10:23.847Z,16.00
2018-04-26T15:12:51.282Z,15.70
2018-04-26T15:15:19.196Z,15.40
2018-04-26T15:17:46.524Z,15.10
2018-04-26T15:20:13.890Z,15.30
2018-04-26T15:22:41.315Z,15.40
2018-04-26T15:25:09.591Z,15.50
2018-04-26T15:27:36.954Z,15.60
2018-04-26T15:30:04.371Z,16.00
2018-04-26T15:32:32.159Z,16.20
2018-04-26T15:35:01.122Z,16.40
2018-04-26T15:37:29.876Z,16.50
2018-04-26T15:39:57.990Z,16.50
2018-04-26T15:42:25.479Z,16.70
2018-04-26T15:44:56.319Z,16.90
2018-04-26T15:47:24.279Z,16.70
2018-04-26T15:49:52.056Z,16.80
2018-04-26T15:52:31.625Z,16.50
2018-04-26T15:55:11.871Z,16.50
2018-04-26T15:58:05.999Z,16.50
2018-04-26T16:00:51.107Z,16.20
2018-04-26T16:03:30.534Z,16.20
2018-04-26T16:06:24.518Z,16.10
2018-04-26T16:09:04.275Z,16.00
2018-04-26T16:11:44.120Z,15.90
2018-04-26T16:14:29.996Z,15.70
2018-04-26T16:20:19.403Z,15.60
2018-04-26T16:23:05.078Z,15.70
2018-04-26T16:25:44.718Z,15.90
2018-04-26T16:28:33.988Z,16.00
2018-04-26T16:31:19.877Z,15.50
2018-04-26T16:34:05.440Z,15.50
2018-04-26T16:36:44.596Z,15.50
2018-04-26T16:39:18.534Z,15.30
2018-04-26T16:41:46.269Z,15.10
2018-04-26T16:44:13.789Z,15.00
2018-04-26T16:46:41.392Z,15.00
2018-04-26T16:49:09.020Z,15.10
2018-04-26T16:51:36.483Z,15.20
2018-04-26T16:54:03.985Z,15.30
2018-04-26T16:56:31.386Z,15.50
2018-04-26T16:58:58.888Z,15.50
2018-04-26T17:01:26.747Z,15.70
2018-04-26T17:03:54.263Z,15.80
2018-04-26T17:06:21.815Z,15.80
2018-04-26T17:08:49.425Z,15.80
2018-04-26T17:11:17.602Z,15.70
2018-04-26T17:13:45.881Z,15.70
2018-04-26T17:16:13.823Z,15.50
2018-04-26T17:18:41.795Z,15.20
2018-04-26T17:21:09.312Z,15.20
2018-04-26T17:23:36.833Z,15.10
2018-04-26T17:26:05.316Z,14.90
2018-04-26T17:28:33.900Z,14.90
2018-04-26T17:31:01.765Z,15.00
2018-04-26T17:33:30.964Z,15.10
2018-04-26T17:35:58.841Z,15.00
2018-04-26T17:38:26.699Z,15.10
2018-04-26T17:40:56.183Z,15.20
2018-04-26T17:43:23.770Z,15.30
2018-04-26T17:45:53.885Z,15.40
2018-04-26T17:48:22.060Z,15.40
2018-04-26T17:50:49.949Z,15.40
2018-04-26T17:53:17.392Z,15.30
2018-04-26T17:55:45.253Z,15.20
2018-04-26T17:58:13.177Z,15.10
2018-04-26T18:00:41.200Z,14.90
2018-04-26T18:03:09.066Z,14.80
2018-04-26T18:05:36.944Z,14.70
2018-04-26T18:08:11.220Z,14.50
2018-04-26T18:10:38.701Z,14.50
2018-04-26T18:13:06.877Z,14.50
2018-04-26T18:15:38.022Z,14.40
2018-04-26T18:18:08.353Z,14.20
2018-04-26T18:20:43.027Z,14.20
2018-04-26T18:23:10.406Z,14.10
2018-04-26T18:25:37.940Z,14.10
2018-04-26T18:28:05.447Z,13.90
2018-04-26T18:30:33.373Z,13.80
2018-04-26T18:33:04.559Z,13.70
2018-04-26T18:35:32.511Z,13.60
2018-04-26T18:37:59.912Z,13.70
2018-04-26T18:40:27.779Z,13.60
2018-04-26T18:42:55.162Z,13.50
2018-04-26T18:45:26.352Z,13.30
2018-04-26T18:47:54.357Z,13.30
2018-04-26T18:50:21.745Z,13.10
2018-04-26T18:52:49.171Z,13.00
2018-04-26T18:55:16.547Z,12.90
2018-04-26T18:57:44.258Z,12.90
2018-04-26T19:00:23.283Z,12.80
2018-04-26T19:02:51.257Z,12.80
2018-04-26T19:05:18.820Z,12.70
2018-04-26T19:07:46.690Z,12.70
2018-04-26T19:10:14.765Z,12.60
2018-04-26T19:12:42.928Z,12.60
2018-04-26T19:15:11.001Z,12.60
2018-04-26T19:17:40.019Z,12.50
2018-04-26T19:20:07.545Z,12.50
2018-04-26T19:22:35.740Z,12.50
2018-04-26T19:25:04.823Z,12.40
2018-04-26T19:27:32.736Z,12.40
2018-04-26T19:30:01.403Z,12.30
2018-04-26T19:32:28.876Z,12.20
2018-04-26T19:34:56.399Z,12.10
2018-04-26T19:37:24.570Z,12.10
2018-04-26T19:39:53.773Z,12.00
2018-04-26T19:42:21.287Z,12.00
2018-04-26T19:44:48.998Z,11.90
2018-04-26T19:47:16.959Z,11.90
2018-04-26T19:49:45.292Z,11.70
2018-04-26T19:52:21.611Z,11.70
2018-04-26T19:54:49.693Z,11.60
2018-04-26T19:57:17.563Z,11.60
2018-04-26T19:59:45.174Z,11.50
2018-04-26T20:02:13.106Z,11.50
2018-04-26T20:04:40.836Z,11.50
2018-04-26T20:07:08.806Z,11.40
2018-04-26T20:09:38.851Z,11.40
2018-04-26T20:12:06.269Z,11.30
2018-04-26T20:14:33.923Z,11.20
2018-04-26T20:17:01.943Z,11.10
2018-04-26T20:19:29.474Z,11.10
2018-04-26T20:21:57.751Z,11.00
2018-04-26T20:24:25.756Z,11.00
2018-04-26T20:26:53.339Z,10.90
2018-04-26T20:29:21.070Z,10.90
2018-04-26T20:31:51.060Z,10.80
2018-04-26T20:34:22.661Z,10.70
2018-04-26T20:36:50.586Z,10.70
2018-04-26T20:39:18.585Z,10.60
2018-04-26T20:41:56.173Z,10.60
2018-04-26T20:44:35.920Z,10.60
2018-04-26T20:47:03.483Z,10.50
2018-04-26T20:49:30.985Z,10.50
2018-04-26T20:51:58.576Z,10.40
2018-04-26T20:54:26.244Z,10.40
2018-04-26T20:56:54.339Z,10.30
2018-04-26T20:59:21.838Z,10.20
2018-04-26T21:01:49.538Z,10.20
2018-04-26T21:04:17.538Z,10.20
2018-04-26T21:06:46.103Z,10.10
2018-04-26T21:09:13.749Z,10.10
2018-04-26T21:11:41.180Z,10.00
2018-04-26T21:14:09.048Z,10.00
2018-04-26T21:16:41.869Z,10.00
2018-04-26T21:19:09.521Z,9.90
2018-04-26T21:21:37.362Z,9.90
2018-04-26T21:24:05.154Z,9.80
2018-04-26T21:26:32.840Z,9.80
2018-04-26T21:29:00.581Z,9.70
2018-04-26T21:31:28.751Z,9.70
2018-04-26T21:34:00.207Z,9.60
2018-04-26T21:36:28.068Z,9.60
2018-04-26T21:38:55.734Z,9.60
2018-04-26T21:41:27.933Z,9.50
2018-04-26T21:44:00.275Z,9.50
2018-04-26T21:46:28.547Z,9.50
2018-04-26T21:48:56.007Z,9.40
2018-04-26T21:51:34.323Z,9.40
2018-04-26T21:54:07.893Z,9.30
2018-04-26T21:56:45.554Z,9.30
2018-04-26T21:59:18.829Z,9.20
2018-04-26T22:01:52.862Z,9.20
2018-04-26T22:04:26.198Z,9.20
2018-04-26T22:06:53.889Z,9.10
2018-04-26T22:09:21.371Z,9.10
2018-04-26T22:11:49.309Z,9.10
2018-04-26T22:14:17.410Z,9.00
2018-04-26T22:16:45.089Z,9.00
2018-04-26T22:19:14.037Z,8.90
2018-04-26T22:21:41.869Z,8.90
2018-04-26T22:24:09.662Z,8.90
2018-04-26T22:26:37.601Z,8.80
2018-04-26T22:29:05.277Z,8.80
2018-04-26T22:31:32.946Z,8.80
2018-04-26T22:34:04.139Z,8.80
2018-04-26T22:36:31.590Z,8.70
2018-04-26T22:38:59.845Z,8.70
2018-04-26T22:41:27.710Z,8.70
2018-04-26T22:43:55.615Z,8.70
2018-04-26T22:46:23.135Z,8.60
2018-04-26T22:48:51.024Z,8.50
2018-04-26T22:51:18.867Z,8.50
2018-04-26T22:53:46.555Z,8.50
2018-04-26T22:56:14.302Z,8.50
2018-04-26T22:58:42.230Z,8.50
2018-04-26T23:01:10.038Z,8.40
2018-04-26T23:03:37.866Z,8.40
2018-04-26T23:06:05.641Z,8.40
2018-04-26T23:08:33.504Z,8.40
2018-04-26T23:11:01.104Z,8.40
2018-04-26T23:13:28.717Z,8.30
2018-04-26T23:15:56.436Z,8.30
2018-04-26T23:18:23.981Z,8.30
2018-04-26T23:20:51.959Z,8.20
2018-04-26T23:23:20.098Z,8.20
2018-04-26T23:25:49.425Z,8.20
2018-04-26T23:28:17.290Z,8.20
2018-04-26T23:30:45.314Z,8.20
2018-04-26T23:33:12.880Z,8.10
2018-04-26T23:35:40.379Z,8.10
2018-04-26T23:38:09.474Z,8.10
2018-04-26T23:40:37.445Z,8.00
2018-04-26T23:43:05.461Z,8.00
2018-04-26T23:45:32.995Z,8.00
2018-04-26T23:48:00.602Z,7.90
2018-04-26T23:50:28.403Z,7.90
2018-04-26T23:52:56.068Z,7.90
2018-04-26T23:55:24.050Z,7.90
2018-04-26T23:57:51.604Z,7.80
